createdAt,value
2023-05-06T00:00:43.069Z,1006.39
2023-05-06T00:01:43.104Z,1006.37
2023-05-06T00:02:43.132Z,1006.37
2023-05-06T00:03:43.232Z,1006.35
2023-05-06T00:04:43.062Z,1006.36
2023-05-06T00:05:43.059Z,1006.35
2023-05-06T00:06:43.052Z,1006.3
2023-05-06T00:07:43.342Z,1006.35
2023-05-06T00:08:45.566Z,1006.32
2023-05-06T00:09:48.792Z,1006.31
2023-05-06T00:10:50.232Z,1006.28
2023-05-06T00:12:43.167Z,1006.27
2023-05-06T00:13:43.080Z,1006.27
2023-05-06T00:14:43.049Z,1006.28
2023-05-06T00:15:43.160Z,1006.24
2023-05-06T00:16:43.071Z,1006.27
2023-05-06T00:17:43.063Z,1006.24
2023-05-06T00:18:43.075Z,1006.26
2023-05-06T00:19:43.068Z,1006.26
2023-05-06T00:20:43.048Z,1006.27
2023-05-06T00:21:43.043Z,1006.25
2023-05-06T00:22:43.048Z,1006.21
2023-05-06T00:23:43.076Z,1006.23
2023-05-06T00:24:43.060Z,1006.19
2023-05-06T00:25:43.052Z,1006.18
2023-05-06T00:26:43.047Z,1006.22
2023-05-06T00:27:43.042Z,1006.17
2023-05-06T00:28:43.450Z,1006.22
2023-05-06T00:29:46.171Z,1006.2
2023-05-06T00:30:48.680Z,1006.19
2023-05-06T00:31:50.470Z,1006.16
2023-05-06T00:33:43.221Z,1006.17
2023-05-06T00:34:43.258Z,1006.17
2023-05-06T00:35:43.370Z,1006.18
2023-05-06T00:36:43.412Z,1006.12
2023-05-06T00:37:43.047Z,1006.16
2023-05-06T00:38:43.063Z,1006.16
2023-05-06T00:39:43.132Z,1006.14
2023-05-06T00:40:43.089Z,1006.16
2023-05-06T00:41:43.065Z,1006.15
2023-05-06T00:42:43.055Z,1006.14
2023-05-06T00:43:43.057Z,1006.11
2023-05-06T00:44:43.072Z,1006.12
2023-05-06T00:45:43.076Z,1006.1
2023-05-06T00:46:43.052Z,1006.13
2023-05-06T00:47:43.075Z,1006.07
2023-05-06T00:48:43.068Z,1006.09
2023-05-06T00:49:43.524Z,1006.1
2023-05-06T00:50:45.985Z,1006.09
2023-05-06T00:51:48.979Z,1006.09
2023-05-06T00:52:50.696Z,1006.08
2023-05-06T00:54:43.406Z,1006.06
2023-05-06T00:55:43.307Z,1006.05
2023-05-06T00:56:43.072Z,1006.07
2023-05-06T00:57:43.066Z,1006.06
2023-05-06T00:58:43.051Z,1006.07
2023-05-06T00:59:43.070Z,1006.04
2023-05-06T01:00:43.069Z,1006.03
2023-05-06T01:01:43.244Z,1006.04
2023-05-06T01:02:49.215Z,1006
2023-05-06T01:04:43.127Z,1006.02
2023-05-06T01:05:43.062Z,1006.01
2023-05-06T01:06:43.055Z,1006.01
2023-05-06T01:07:43.081Z,1006.04
2023-05-06T01:08:43.194Z,1006.03
2023-05-06T01:09:43.309Z,1006
2023-05-06T01:10:43.166Z,1005.98
2023-05-06T01:11:45.992Z,1005.98
2023-05-06T01:12:49.117Z,1005.95
2023-05-06T01:13:50.761Z,1005.99
2023-05-06T01:15:43.505Z,1005.96
2023-05-06T01:16:43.061Z,1005.95
2023-05-06T01:17:43.105Z,1005.96
2023-05-06T01:18:43.054Z,1005.95
2023-05-06T01:19:43.059Z,1005.98
2023-05-06T01:20:43.095Z,1005.96
2023-05-06T01:21:43.053Z,1006.01
2023-05-06T01:22:43.069Z,1005.98
2023-05-06T01:23:43.078Z,1006
2023-05-06T01:24:43.075Z,1005.98
2023-05-06T01:25:43.083Z,1005.97
2023-05-06T01:26:43.102Z,1006
2023-05-06T01:27:43.104Z,1006.01
2023-05-06T01:28:43.194Z,1006.04
2023-05-06T01:29:43.234Z,1006.05
2023-05-06T01:30:43.324Z,1006.04
2023-05-06T01:31:43.231Z,1006.02
2023-05-06T01:32:43.395Z,1006.02
2023-05-06T01:33:47.142Z,1006.02
2023-05-06T01:34:49.173Z,1006.06
2023-05-06T01:35:49.700Z,1006.08
2023-05-06T01:36:43.062Z,1006.08
2023-05-06T01:37:43.065Z,1006.06
2023-05-06T01:38:43.071Z,1006.07
2023-05-06T01:39:43.058Z,1006.11
2023-05-06T01:40:43.072Z,1006.11
2023-05-06T01:41:43.073Z,1006.12
2023-05-06T01:42:43.077Z,1006.16
2023-05-06T01:43:43.058Z,1006.16
2023-05-06T01:44:43.076Z,1006.17
2023-05-06T01:45:43.080Z,1006.18
2023-05-06T01:46:43.099Z,1006.19
2023-05-06T01:47:43.118Z,1006.18
2023-05-06T01:48:43.064Z,1006.2
2023-05-06T01:49:43.064Z,1006.18
2023-05-06T01:50:43.056Z,1006.2
2023-05-06T01:51:43.058Z,1006.18
2023-05-06T01:52:43.087Z,1006.19
2023-05-06T01:53:43.657Z,1006.18
2023-05-06T01:54:47.197Z,1006.2
2023-05-06T01:55:50.010Z,1006.2
2023-05-06T01:56:49.793Z,1006.21
2023-05-06T01:57:43.081Z,1006.2
2023-05-06T01:58:43.060Z,1006.22
2023-05-06T01:59:43.066Z,1006.25
2023-05-06T02:00:43.062Z,1006.23
2023-05-06T02:01:43.105Z,1006.3
2023-05-06T02:02:43.155Z,1006.25
2023-05-06T02:03:43.086Z,1006.27
2023-05-06T02:04:43.056Z,1006.3
2023-05-06T02:05:43.058Z,1006.28
2023-05-06T02:06:43.096Z,1006.33
2023-05-06T02:07:43.063Z,1006.33
2023-05-06T02:08:43.061Z,1006.33
2023-05-06T02:09:43.067Z,1006.31
2023-05-06T02:10:43.061Z,1006.27
2023-05-06T02:11:43.078Z,1006.26
2023-05-06T02:12:43.122Z,1006.28
2023-05-06T02:13:43.067Z,1006.35
2023-05-06T02:14:43.559Z,1006.32
2023-05-06T02:15:47.353Z,1006.34
2023-05-06T02:16:49.422Z,1006.32
2023-05-06T02:17:49.468Z,1006.33
2023-05-06T02:18:43.080Z,1006.37
2023-05-06T02:19:43.058Z,1006.37
2023-05-06T02:20:43.079Z,1006.34
2023-05-06T02:21:43.082Z,1006.38
2023-05-06T02:22:43.059Z,1006.31
2023-05-06T02:23:43.161Z,1006.3
2023-05-06T02:24:43.055Z,1006.3
2023-05-06T02:25:43.073Z,1006.26
2023-05-06T02:26:43.088Z,1006.26
2023-05-06T02:27:43.075Z,1006.27
2023-05-06T02:28:43.064Z,1006.27
2023-05-06T02:29:43.068Z,1006.31
2023-05-06T02:30:43.070Z,1006.31
2023-05-06T02:31:43.095Z,1006.33
2023-05-06T02:32:43.095Z,1006.33
2023-05-06T02:33:43.057Z,1006.29
2023-05-06T02:34:43.064Z,1006.33
2023-05-06T02:35:43.648Z,1006.3
2023-05-06T02:36:47.416Z,1006.31
2023-05-06T02:37:49.442Z,1006.27
2023-05-06T02:38:49.528Z,1006.3
2023-05-06T02:39:43.165Z,1006.31
2023-05-06T02:40:43.087Z,1006.34
2023-05-06T02:41:43.057Z,1006.33
2023-05-06T02:42:43.087Z,1006.33
2023-05-06T02:43:43.127Z,1006.32
2023-05-06T02:44:43.064Z,1006.32
2023-05-06T02:45:43.075Z,1006.29
2023-05-06T02:46:43.050Z,1006.32
2023-05-06T02:47:43.072Z,1006.27
2023-05-06T02:48:43.066Z,1006.29
2023-05-06T02:49:43.061Z,1006.34
2023-05-06T02:50:43.058Z,1006.32
2023-05-06T02:51:43.068Z,1006.32
2023-05-06T02:52:43.073Z,1006.31
2023-05-06T02:53:43.059Z,1006.32
2023-05-06T02:54:43.055Z,1006.32
2023-05-06T02:55:43.080Z,1006.34
2023-05-06T02:56:43.772Z,1006.35
2023-05-06T02:57:47.432Z,1006.33
2023-05-06T02:58:49.721Z,1006.31
2023-05-06T02:59:49.588Z,1006.31
2023-05-06T03:00:43.277Z,1006.29
2023-05-06T03:01:43.188Z,1006.33
2023-05-06T03:02:43.103Z,1006.31
2023-05-06T03:03:43.059Z,1006.34
2023-05-06T03:04:43.105Z,1006.3
2023-05-06T03:05:43.074Z,1006.31
2023-05-06T03:06:43.050Z,1006.33
2023-05-06T03:07:43.054Z,1006.33
2023-05-06T03:08:43.053Z,1006.29
2023-05-06T03:09:43.078Z,1006.31
2023-05-06T03:10:43.064Z,1006.28
2023-05-06T03:11:43.059Z,1006.26
2023-05-06T03:12:43.087Z,1006.25
2023-05-06T03:13:43.142Z,1006.27
2023-05-06T03:14:43.055Z,1006.27
2023-05-06T03:15:43.048Z,1006.22
2023-05-06T03:16:43.111Z,1006.23
2023-05-06T03:17:43.923Z,1006.2
2023-05-06T03:18:47.563Z,1006.25
2023-05-06T03:19:49.694Z,1006.21
2023-05-06T03:20:49.699Z,1006.22
2023-05-06T03:21:43.084Z,1006.26
2023-05-06T03:22:43.237Z,1006.22
2023-05-06T03:23:43.063Z,1006.21
2023-05-06T03:24:43.100Z,1006.24
2023-05-06T03:25:43.152Z,1006.24
2023-05-06T03:26:43.108Z,1006.25
2023-05-06T03:27:43.102Z,1006.26
2023-05-06T03:28:43.131Z,1006.28
2023-05-06T03:29:43.207Z,1006.31
2023-05-06T03:30:43.144Z,1006.35
2023-05-06T03:31:43.394Z,1006.36
2023-05-06T03:32:43.313Z,1006.38
2023-05-06T03:33:43.262Z,1006.37
2023-05-06T03:34:43.305Z,1006.43
2023-05-06T03:35:43.168Z,1006.44
2023-05-06T03:36:43.167Z,1006.41
2023-05-06T03:37:43.139Z,1006.43
2023-05-06T03:38:44.083Z,1006.4
2023-05-06T03:39:47.733Z,1006.4
2023-05-06T03:40:49.828Z,1006.42
2023-05-06T03:41:49.907Z,1006.44
2023-05-06T03:42:43.141Z,1006.42
2023-05-06T03:43:43.150Z,1006.42
2023-05-06T03:44:43.164Z,1006.43
2023-05-06T03:45:43.076Z,1006.39
2023-05-06T03:46:43.235Z,1006.41
2023-05-06T03:47:43.156Z,1006.44
2023-05-06T03:48:43.076Z,1006.43
2023-05-06T03:49:43.059Z,1006.44
2023-05-06T03:50:43.316Z,1006.45
2023-05-06T03:51:43.241Z,1006.44
2023-05-06T03:52:43.320Z,1006.44
2023-05-06T03:53:43.217Z,1006.41
2023-05-06T03:54:43.186Z,1006.39
2023-05-06T03:55:43.250Z,1006.4
2023-05-06T03:56:43.238Z,1006.43
2023-05-06T03:57:43.075Z,1006.46
2023-05-06T03:58:43.071Z,1006.48
2023-05-06T03:59:44.187Z,1006.5
2023-05-06T04:00:47.822Z,1006.53
2023-05-06T04:01:50.020Z,1006.49
2023-05-06T04:02:50.094Z,1006.5
2023-05-06T04:03:43.126Z,1006.49
2023-05-06T04:04:43.068Z,1006.46
2023-05-06T04:05:43.128Z,1006.43
2023-05-06T04:06:43.062Z,1006.39
2023-05-06T04:07:43.073Z,1006.41
2023-05-06T04:08:43.320Z,1006.48
2023-05-06T04:09:43.302Z,1006.47
2023-05-06T04:10:43.311Z,1006.46
2023-05-06T04:11:43.065Z,1006.47
2023-05-06T04:12:43.072Z,1006.47
2023-05-06T04:13:43.046Z,1006.52
2023-05-06T04:14:43.086Z,1006.49
2023-05-06T04:15:43.070Z,1006.53
2023-05-06T04:16:43.064Z,1006.5
2023-05-06T04:17:43.075Z,1006.52
2023-05-06T04:18:43.066Z,1006.51
2023-05-06T04:19:43.054Z,1006.54
2023-05-06T04:20:44.267Z,1006.52
2023-05-06T04:21:47.845Z,1006.56
2023-05-06T04:22:50.803Z,1006.54
2023-05-06T04:23:50.097Z,1006.5
2023-05-06T04:24:43.135Z,1006.54
2023-05-06T04:25:43.104Z,1006.51
2023-05-06T04:26:43.164Z,1006.52
2023-05-06T04:27:43.143Z,1006.54
2023-05-06T04:28:43.353Z,1006.53
2023-05-06T04:29:43.060Z,1006.57
2023-05-06T04:30:43.286Z,1006.59
2023-05-06T04:31:43.143Z,1006.58
2023-05-06T04:32:43.099Z,1006.58
2023-05-06T04:33:43.062Z,1006.59
2023-05-06T04:34:43.055Z,1006.62
2023-05-06T04:35:43.066Z,1006.58
2023-05-06T04:36:43.076Z,1006.64
2023-05-06T04:37:43.055Z,1006.61
2023-05-06T04:38:43.055Z,1006.59
2023-05-06T04:39:43.068Z,1006.55
2023-05-06T04:40:43.063Z,1006.54
2023-05-06T04:41:43.077Z,1006.57
2023-05-06T04:42:45.571Z,1006.54
2023-05-06T04:43:48.419Z,1006.57
2023-05-06T04:44:49.487Z,1006.57
2023-05-06T04:46:43.080Z,1006.54
2023-05-06T04:47:43.120Z,1006.51
2023-05-06T04:48:43.056Z,1006.5
2023-05-06T04:49:43.063Z,1006.55
2023-05-06T04:50:43.060Z,1006.55
2023-05-06T04:51:43.075Z,1006.59
2023-05-06T04:52:43.077Z,1006.58
2023-05-06T04:53:43.065Z,1006.59
2023-05-06T04:54:46.049Z,1006.62
2023-05-06T04:55:43.072Z,1006.71
2023-05-06T04:56:43.087Z,1006.66
2023-05-06T04:57:43.080Z,1006.64
2023-05-06T04:58:43.058Z,1006.64
2023-05-06T04:59:43.063Z,1006.64
2023-05-06T05:00:43.072Z,1006.61
2023-05-06T05:01:43.194Z,1006.65
2023-05-06T05:02:43.140Z,1006.63
2023-05-06T05:03:45.574Z,1006.64
2023-05-06T05:04:48.501Z,1006.68
2023-05-06T05:05:49.498Z,1006.71
2023-05-06T05:07:43.084Z,1006.68
2023-05-06T05:08:43.065Z,1006.68
2023-05-06T05:09:43.064Z,1006.7
2023-05-06T05:10:43.064Z,1006.64
2023-05-06T05:11:43.054Z,1006.7
2023-05-06T05:12:43.148Z,1006.7
2023-05-06T05:13:43.059Z,1006.72
2023-05-06T05:14:43.066Z,1006.75
2023-05-06T05:15:43.067Z,1006.69
2023-05-06T05:16:43.097Z,1006.72
2023-05-06T05:17:43.107Z,1006.7
2023-05-06T05:18:43.084Z,1006.71
2023-05-06T05:19:43.065Z,1006.73
2023-05-06T05:20:43.073Z,1006.71
2023-05-06T05:21:43.060Z,1006.73
2023-05-06T05:22:43.055Z,1006.72
2023-05-06T05:23:43.113Z,1006.69
2023-05-06T05:24:45.539Z,1006.75
2023-05-06T05:25:48.566Z,1006.72
2023-05-06T05:26:50.290Z,1006.74
2023-05-06T05:28:43.119Z,1006.77
2023-05-06T05:29:43.053Z,1006.77
2023-05-06T05:30:43.080Z,1006.77
2023-05-06T05:31:43.102Z,1006.78
2023-05-06T05:32:43.121Z,1006.75
2023-05-06T05:33:43.109Z,1006.79
2023-05-06T05:34:43.064Z,1006.77
2023-05-06T05:35:43.055Z,1006.79
2023-05-06T05:36:43.065Z,1006.78
2023-05-06T05:37:43.056Z,1006.76
2023-05-06T05:38:43.088Z,1006.73
2023-05-06T05:39:43.068Z,1006.77
2023-05-06T05:40:43.062Z,1006.8
2023-05-06T05:41:43.058Z,1006.78
2023-05-06T05:42:43.057Z,1006.8
2023-05-06T05:43:43.088Z,1006.77
2023-05-06T05:44:43.143Z,1006.79
2023-05-06T05:45:45.523Z,1006.81
2023-05-06T05:46:48.828Z,1006.82
2023-05-06T05:47:50.385Z,1006.81
2023-05-06T05:49:43.050Z,1006.85
2023-05-06T05:50:43.058Z,1006.82
2023-05-06T05:51:43.058Z,1006.84
2023-05-06T05:52:43.055Z,1006.82
2023-05-06T05:53:43.076Z,1006.83
2023-05-06T05:54:43.054Z,1006.88
2023-05-06T05:55:43.064Z,1006.85
2023-05-06T05:56:43.061Z,1006.87
2023-05-06T05:57:43.066Z,1006.88
2023-05-06T05:58:43.056Z,1006.85
2023-05-06T05:59:43.064Z,1006.84
2023-05-06T06:00:43.058Z,1006.84
2023-05-06T06:01:43.057Z,1006.88
2023-05-06T06:02:43.102Z,1006.9
2023-05-06T06:03:43.125Z,1006.93
2023-05-06T06:04:43.103Z,1006.92
2023-05-06T06:05:43.308Z,1006.97
2023-05-06T06:06:45.558Z,1006.94
2023-05-06T06:07:49.027Z,1006.98
2023-05-06T06:08:50.472Z,1006.97
2023-05-06T06:10:43.054Z,1006.96
2023-05-06T06:11:43.065Z,1006.98
2023-05-06T06:12:43.111Z,1006.98
2023-05-06T06:13:43.072Z,1006.99
2023-05-06T06:14:43.078Z,1006.99
2023-05-06T06:15:43.075Z,1006.97
2023-05-06T06:16:43.150Z,1006.98
2023-05-06T06:17:43.116Z,1006.99
2023-05-06T06:18:43.061Z,1006.94
2023-05-06T06:19:43.077Z,1006.94
2023-05-06T06:20:43.052Z,1006.93
2023-05-06T06:21:43.050Z,1006.87
2023-05-06T06:22:43.058Z,1006.89
2023-05-06T06:23:43.067Z,1006.86
2023-05-06T06:24:43.081Z,1006.87
2023-05-06T06:25:43.058Z,1006.87
2023-05-06T06:26:43.492Z,1006.91
2023-05-06T06:27:45.725Z,1006.85
2023-05-06T06:28:48.790Z,1006.83
2023-05-06T06:29:50.545Z,1006.84
2023-05-06T06:31:44.147Z,1006.82
2023-05-06T06:32:43.100Z,1006.85
2023-05-06T06:33:43.064Z,1006.84
2023-05-06T06:34:43.112Z,1006.8
2023-05-06T06:35:43.062Z,1006.82
2023-05-06T06:36:43.058Z,1006.8
2023-05-06T06:37:43.101Z,1006.79
2023-05-06T06:38:43.185Z,1006.79
2023-05-06T06:39:43.080Z,1006.79
2023-05-06T06:40:43.070Z,1006.74
2023-05-06T06:41:43.059Z,1006.76
2023-05-06T06:42:43.051Z,1006.77
2023-05-06T06:43:43.065Z,1006.78
2023-05-06T06:44:43.124Z,1006.81
2023-05-06T06:45:43.065Z,1006.78
2023-05-06T06:46:43.056Z,1006.77
2023-05-06T06:47:43.555Z,1006.77
2023-05-06T06:48:45.775Z,1006.77
2023-05-06T06:49:48.959Z,1006.78
2023-05-06T06:50:50.601Z,1006.79
2023-05-06T06:52:43.103Z,1006.79
2023-05-06T06:53:43.066Z,1006.82
2023-05-06T06:54:43.070Z,1006.78
2023-05-06T06:55:43.065Z,1006.82
2023-05-06T06:56:43.055Z,1006.8
2023-05-06T06:57:43.058Z,1006.79
2023-05-06T06:58:43.139Z,1006.84
2023-05-06T06:59:43.248Z,1006.83
2023-05-06T07:00:43.062Z,1006.84
2023-05-06T07:01:43.119Z,1006.84
2023-05-06T07:02:43.141Z,1006.8
2023-05-06T07:03:43.141Z,1006.77
2023-05-06T07:04:43.182Z,1006.83
2023-05-06T07:05:43.084Z,1006.78
2023-05-06T07:06:43.054Z,1006.76
2023-05-06T07:07:43.052Z,1006.78
2023-05-06T07:08:43.097Z,1006.79
2023-05-06T07:09:45.997Z,1006.82
2023-05-06T07:10:49.058Z,1006.83
2023-05-06T07:11:50.696Z,1006.74
2023-05-06T07:13:43.059Z,1006.73
2023-05-06T07:14:43.049Z,1006.72
2023-05-06T07:15:43.096Z,1006.72
2023-05-06T07:16:46.780Z,1006.73
2023-05-06T07:17:43.089Z,1006.75
2023-05-06T07:18:43.057Z,1006.76
2023-05-06T07:19:43.056Z,1006.77
2023-05-06T07:20:43.251Z,1006.76
2023-05-06T07:21:43.056Z,1006.73
2023-05-06T07:22:43.062Z,1006.66
2023-05-06T07:23:43.156Z,1006.68
2023-05-06T07:24:43.064Z,1006.7
2023-05-06T07:25:43.065Z,1006.73
2023-05-06T07:26:43.129Z,1006.73
2023-05-06T07:27:43.082Z,1006.71
2023-05-06T07:28:43.071Z,1006.7
2023-05-06T07:29:43.178Z,1006.69
2023-05-06T07:30:46.173Z,1006.72
2023-05-06T07:31:48.934Z,1006.69
2023-05-06T07:32:50.859Z,1006.7
2023-05-06T07:34:43.056Z,1006.72
2023-05-06T07:35:43.049Z,1006.75
2023-05-06T07:36:43.062Z,1006.76
2023-05-06T07:37:43.074Z,1006.75
2023-05-06T07:38:43.082Z,1006.72
2023-05-06T07:39:43.054Z,1006.75
2023-05-06T07:40:43.057Z,1006.75
2023-05-06T07:41:43.054Z,1006.75
2023-05-06T07:42:46.063Z,1006.74
2023-05-06T07:44:43.057Z,1006.72
2023-05-06T07:45:43.048Z,1006.67
2023-05-06T07:46:43.158Z,1006.67
2023-05-06T07:47:43.267Z,1006.66
2023-05-06T07:48:43.065Z,1006.65
2023-05-06T07:49:43.052Z,1006.67
2023-05-06T07:50:43.229Z,1006.65
2023-05-06T07:51:46.186Z,1006.71
2023-05-06T07:52:49.211Z,1006.67
2023-05-06T07:53:50.665Z,1006.69
2023-05-06T07:55:43.051Z,1006.71
2023-05-06T07:56:43.051Z,1006.68
2023-05-06T07:57:43.116Z,1006.68
2023-05-06T07:58:43.187Z,1006.7
2023-05-06T07:59:43.063Z,1006.69
2023-05-06T08:00:43.057Z,1006.71
2023-05-06T08:01:43.081Z,1006.7
2023-05-06T08:02:43.237Z,1006.72
2023-05-06T08:03:43.506Z,1006.7
2023-05-06T08:04:43.171Z,1006.69
2023-05-06T08:05:43.155Z,1006.74
2023-05-06T08:06:43.285Z,1006.76
2023-05-06T08:07:43.229Z,1006.77
2023-05-06T08:08:43.170Z,1006.79
2023-05-06T08:09:43.352Z,1006.76
2023-05-06T08:10:43.173Z,1006.78
2023-05-06T08:11:43.354Z,1006.77
2023-05-06T08:12:46.311Z,1006.76
2023-05-06T08:13:49.114Z,1006.8
2023-05-06T08:14:51.003Z,1006.79
2023-05-06T08:16:43.538Z,1006.77
2023-05-06T08:17:43.080Z,1006.78
2023-05-06T08:18:43.065Z,1006.77
2023-05-06T08:19:43.067Z,1006.75
2023-05-06T08:20:43.055Z,1006.77
2023-05-06T08:21:43.067Z,1006.74
2023-05-06T08:22:43.054Z,1006.73
2023-05-06T08:23:43.057Z,1006.79
2023-05-06T08:24:43.060Z,1006.75
2023-05-06T08:25:43.054Z,1006.75
2023-05-06T08:26:43.067Z,1006.79
2023-05-06T08:27:43.068Z,1006.81
2023-05-06T08:28:43.064Z,1006.83
2023-05-06T08:29:43.066Z,1006.84
2023-05-06T08:30:43.058Z,1006.83
2023-05-06T08:31:43.110Z,1006.87
2023-05-06T08:32:43.106Z,1006.83
2023-05-06T08:33:43.767Z,1006.85
2023-05-06T08:34:47.304Z,1006.8
2023-05-06T08:35:49.474Z,1006.84
2023-05-06T08:36:49.529Z,1006.82
2023-05-06T08:37:43.175Z,1006.81
2023-05-06T08:38:43.120Z,1006.81
2023-05-06T08:39:43.062Z,1006.87
2023-05-06T08:40:43.070Z,1006.83
2023-05-06T08:41:43.116Z,1006.87
2023-05-06T08:42:43.090Z,1006.83
2023-05-06T08:43:43.060Z,1006.9
2023-05-06T08:44:43.071Z,1006.88
2023-05-06T08:45:43.195Z,1006.88
2023-05-06T08:46:43.069Z,1006.84
2023-05-06T08:47:43.093Z,1006.86
2023-05-06T08:48:43.066Z,1006.85
2023-05-06T08:49:43.057Z,1006.83
2023-05-06T08:50:43.070Z,1006.86
2023-05-06T08:51:43.159Z,1006.88
2023-05-06T08:52:43.194Z,1006.9
2023-05-06T08:53:43.082Z,1006.83
2023-05-06T08:54:43.913Z,1006.84
2023-05-06T08:55:47.411Z,1006.85
2023-05-06T08:56:50.355Z,1006.75
2023-05-06T08:57:49.621Z,1006.78
2023-05-06T08:58:43.131Z,1006.82
2023-05-06T08:59:43.298Z,1006.84
2023-05-06T09:00:43.394Z,1006.82
2023-05-06T09:01:43.410Z,1006.83
2023-05-06T09:02:46.254Z,1006.83
2023-05-06T09:04:43.372Z,1006.81
2023-05-06T09:05:43.057Z,1006.84
2023-05-06T09:06:43.060Z,1006.73
2023-05-06T09:07:43.105Z,1006.75
2023-05-06T09:08:43.260Z,1006.74
2023-05-06T09:09:43.064Z,1006.74
2023-05-06T09:10:43.057Z,1006.73
2023-05-06T09:11:43.055Z,1006.72
2023-05-06T09:12:43.113Z,1006.73
2023-05-06T09:13:43.063Z,1006.74
2023-05-06T09:14:43.062Z,1006.71
2023-05-06T09:15:44.028Z,1006.74
2023-05-06T09:16:47.789Z,1006.69
2023-05-06T09:17:49.801Z,1006.73
2023-05-06T09:18:49.776Z,1006.71
2023-05-06T09:19:43.059Z,1006.73
2023-05-06T09:20:43.058Z,1006.76
2023-05-06T09:21:43.066Z,1006.76
2023-05-06T09:22:43.066Z,1006.73
2023-05-06T09:23:43.050Z,1006.72
2023-05-06T09:24:43.055Z,1006.75
2023-05-06T09:25:43.059Z,1006.71
2023-05-06T09:26:43.100Z,1006.71
2023-05-06T09:27:43.069Z,1006.72
2023-05-06T09:28:43.058Z,1006.7
2023-05-06T09:29:43.123Z,1006.67
2023-05-06T09:30:43.170Z,1006.68
2023-05-06T09:31:43.085Z,1006.66
2023-05-06T09:32:44.300Z,1006.64
2023-05-06T09:33:43.075Z,1006.64
2023-05-06T09:34:43.220Z,1006.66
2023-05-06T09:35:43.120Z,1006.65
2023-05-06T09:36:44.211Z,1006.64
2023-05-06T09:37:47.893Z,1006.62
2023-05-06T09:38:50.640Z,1006.64
2023-05-06T09:39:50.136Z,1006.6
2023-05-06T09:40:43.156Z,1006.61
2023-05-06T09:41:43.472Z,1006.6
2023-05-06T09:42:43.134Z,1006.61
2023-05-06T09:43:43.304Z,1006.62
2023-05-06T09:44:43.370Z,1006.62
2023-05-06T09:45:43.389Z,1006.66
2023-05-06T09:46:43.475Z,1006.64
2023-05-06T09:47:43.100Z,1006.6
2023-05-06T09:48:43.060Z,1006.61
2023-05-06T09:49:43.086Z,1006.58
2023-05-06T09:50:43.068Z,1006.53
2023-05-06T09:51:43.078Z,1006.54
2023-05-06T09:52:43.069Z,1006.59
2023-05-06T09:53:43.063Z,1006.5
2023-05-06T09:54:43.108Z,1006.51
2023-05-06T09:55:43.069Z,1006.55
2023-05-06T09:56:43.075Z,1006.52
2023-05-06T09:57:44.648Z,1006.53
2023-05-06T09:58:47.765Z,1006.49
2023-05-06T09:59:49.969Z,1006.53
2023-05-06T10:00:49.972Z,1006.51
2023-05-06T10:01:43.095Z,1006.47
2023-05-06T10:02:43.162Z,1006.46
2023-05-06T10:03:43.223Z,1006.47
2023-05-06T10:04:43.207Z,1006.48
2023-05-06T10:05:43.088Z,1006.49
2023-05-06T10:06:43.056Z,1006.48
2023-05-06T10:07:43.070Z,1006.43
2023-05-06T10:08:43.063Z,1006.46
2023-05-06T10:09:43.072Z,1006.4
2023-05-06T10:10:43.090Z,1006.45
2023-05-06T10:11:43.064Z,1006.44
2023-05-06T10:12:43.076Z,1006.45
2023-05-06T10:13:43.059Z,1006.45
2023-05-06T10:14:43.080Z,1006.45
2023-05-06T10:15:43.134Z,1006.41
2023-05-06T10:16:43.207Z,1006.42
2023-05-06T10:17:43.211Z,1006.46
2023-05-06T10:18:44.358Z,1006.44
2023-05-06T10:19:47.859Z,1006.42
2023-05-06T10:20:50.907Z,1006.38
2023-05-06T10:21:50.117Z,1006.41
2023-05-06T10:22:43.319Z,1006.41
2023-05-06T10:23:43.192Z,1006.41
2023-05-06T10:24:43.067Z,1006.42
2023-05-06T10:25:43.089Z,1006.42
2023-05-06T10:26:43.061Z,1006.38
2023-05-06T10:27:43.276Z,1006.37
2023-05-06T10:28:43.512Z,1006.37
2023-05-06T10:29:43.258Z,1006.38
2023-05-06T10:30:43.326Z,1006.32
2023-05-06T10:31:43.458Z,1006.33
2023-05-06T10:32:43.495Z,1006.33
2023-05-06T10:33:46.073Z,1006.35
2023-05-06T10:35:43.083Z,1006.28
2023-05-06T10:36:43.057Z,1006.25
2023-05-06T10:37:43.071Z,1006.28
2023-05-06T10:38:43.052Z,1006.3
2023-05-06T10:39:44.395Z,1006.26
2023-05-06T10:40:47.882Z,1006.21
2023-05-06T10:41:49.887Z,1006.21
2023-05-06T10:43:43.103Z,1006.21
2023-05-06T10:44:44.000Z,1006.18
2023-05-06T10:45:43.101Z,1006.16
2023-05-06T10:46:43.059Z,1006.14
2023-05-06T10:47:43.080Z,1006.09
2023-05-06T10:48:43.056Z,1006.08
2023-05-06T10:49:43.064Z,1006.05
2023-05-06T10:50:44.558Z,1006.08
2023-05-06T10:51:43.109Z,1006.1
2023-05-06T10:52:43.055Z,1006.06
2023-05-06T10:53:43.060Z,1006.05
2023-05-06T10:54:43.046Z,1006.02
2023-05-06T10:55:43.052Z,1006.01
2023-05-06T10:56:44.137Z,1006.01
2023-05-06T10:57:43.057Z,1006
2023-05-06T10:58:43.061Z,1006.01
2023-05-06T10:59:43.051Z,1006
2023-05-06T11:00:44.187Z,1006
2023-05-06T11:01:47.544Z,1005.98
2023-05-06T11:02:49.836Z,1006.01
2023-05-06T11:04:43.070Z,1006.06
2023-05-06T11:05:43.198Z,1006.03
2023-05-06T11:06:43.101Z,1006.04
2023-05-06T11:07:43.050Z,1006.02
2023-05-06T11:08:44.657Z,1006
2023-05-06T11:09:43.063Z,1006.02
2023-05-06T11:10:43.061Z,1006.01
2023-05-06T11:11:43.079Z,1006
2023-05-06T11:12:43.075Z,1005.96
2023-05-06T11:13:43.064Z,1006
2023-05-06T11:14:43.087Z,1005.99
2023-05-06T11:15:43.072Z,1005.96
2023-05-06T11:16:43.103Z,1006.01
2023-05-06T11:17:43.115Z,1005.93
2023-05-06T11:18:43.071Z,1005.85
2023-05-06T11:19:43.051Z,1005.87
2023-05-06T11:20:43.062Z,1005.85
2023-05-06T11:21:44.680Z,1005.87
2023-05-06T11:22:48.044Z,1005.88
2023-05-06T11:23:48.354Z,1005.87
2023-05-06T11:25:43.125Z,1005.9
2023-05-06T11:26:43.070Z,1005.92
2023-05-06T11:27:43.087Z,1005.92
2023-05-06T11:28:43.059Z,1005.87
2023-05-06T11:29:43.071Z,1005.89
2023-05-06T11:30:43.078Z,1005.87
2023-05-06T11:31:43.054Z,1005.87
2023-05-06T11:32:43.100Z,1005.88
2023-05-06T11:33:43.051Z,1005.86
2023-05-06T11:34:43.064Z,1005.86
2023-05-06T11:35:43.053Z,1005.87
2023-05-06T11:36:43.130Z,1005.9
2023-05-06T11:37:43.110Z,1005.89
2023-05-06T11:38:43.059Z,1005.82
2023-05-06T11:39:44.057Z,1005.81
2023-05-06T11:40:43.062Z,1005.78
2023-05-06T11:41:43.056Z,1005.84
2023-05-06T11:42:43.080Z,1005.8
2023-05-06T11:43:45.398Z,1005.77
2023-05-06T11:44:48.414Z,1005.75
2023-05-06T11:45:49.487Z,1005.78
2023-05-06T11:47:43.121Z,1005.75
2023-05-06T11:48:43.050Z,1005.81
2023-05-06T11:49:43.098Z,1005.8
2023-05-06T11:50:43.065Z,1005.8
2023-05-06T11:51:43.069Z,1005.82
2023-05-06T11:52:43.091Z,1005.78
2023-05-06T11:53:43.049Z,1005.86
2023-05-06T11:54:43.059Z,1005.83
2023-05-06T11:55:43.064Z,1005.85
2023-05-06T11:56:43.068Z,1005.84
2023-05-06T11:57:43.071Z,1005.8
2023-05-06T11:58:43.061Z,1005.83
2023-05-06T11:59:43.055Z,1005.84
2023-05-06T12:00:43.080Z,1005.86
2023-05-06T12:01:43.056Z,1005.87
2023-05-06T12:02:43.146Z,1005.89
2023-05-06T12:03:43.519Z,1005.91
2023-05-06T12:04:45.319Z,1005.87
2023-05-06T12:05:48.494Z,1005.83
2023-05-06T12:06:49.949Z,1005.88
2023-05-06T12:08:43.071Z,1005.91
2023-05-06T12:09:43.064Z,1005.88
2023-05-06T12:10:43.077Z,1005.86
2023-05-06T12:11:47.078Z,1005.86
2023-05-06T12:12:43.116Z,1005.84
2023-05-06T12:13:43.061Z,1005.87
2023-05-06T12:14:43.055Z,1005.88
2023-05-06T12:15:43.095Z,1005.86
2023-05-06T12:16:43.153Z,1005.83
2023-05-06T12:17:43.099Z,1005.83
2023-05-06T12:18:43.055Z,1005.89
2023-05-06T12:19:43.066Z,1005.83
2023-05-06T12:20:43.069Z,1005.88
2023-05-06T12:21:43.074Z,1005.85
2023-05-06T12:22:43.066Z,1005.83
2023-05-06T12:23:43.055Z,1005.8
2023-05-06T12:24:43.163Z,1005.79
2023-05-06T12:25:45.434Z,1005.78
2023-05-06T12:26:48.574Z,1005.85
2023-05-06T12:27:48.524Z,1005.82
2023-05-06T12:29:43.059Z,1005.74
2023-05-06T12:30:43.057Z,1005.74
2023-05-06T12:31:43.077Z,1005.77
2023-05-06T12:32:43.120Z,1005.72
2023-05-06T12:33:43.056Z,1005.79